sensor_id;sensor_type;location;lat;lon;timestamp;pressure;altitude;pressure_sealevel;temperature;humidity
48077;BME280;33854;57.708;12.008;2023-04-26T00:00:21;99741.16;;;4.48;100.00
48077;BME280;33854;57.708;12.008;2023-04-26T00:02:47;99742.00;;;4.48;100.00
48077;BME280;33854;57.708;12.008;2023-04-26T00:05:13;99740.34;;;4.47;100.00
48077;BME280;33854;57.708;12.008;2023-04-26T00:07:40;99729.25;;;4.44;100.00
48077;BME280;33854;57.708;12.008;2023-04-26T00:10:07;99737.00;;;4.44;100.00
48077;BME280;33854;57.708;12.008;2023-04-26T00:12:33;99728.63;;;4.37;100.00
48077;BME280;33854;57.708;12.008;2023-04-26T00:14:58;99725.31;;;4.34;100.00
48077;BME280;33854;57.708;12.008;2023-04-26T00:17:24;99721.00;;;4.34;100.00
48077;BME280;33854;57.708;12.008;2023-04-26T00:19:49;99726.38;;;4.28;100.00
48077;BME280;33854;57.708;12.008;2023-04-26T00:22:15;99721.31;;;4.25;100.00
48077;BME280;33854;57.708;12.008;2023-04-26T00:24:41;99722.28;;;4.23;100.00
48077;BME280;33854;57.708;12.008;2023-04-26T00:27:07;99713.75;;;4.21;100.00
48077;BME280;33854;57.708;12.008;2023-04-26T00:29:37;99703.34;;;4.22;100.00
48077;BME280;33854;57.708;12.008;2023-04-26T00:32:03;99704.28;;;4.21;100.00
48077;BME280;33854;57.708;12.008;2023-04-26T00:34:32;99694.06;;;4.18;100.00
48077;BME280;33854;57.708;12.008;2023-04-26T00:36:58;99685.41;;;4.19;100.00
48077;BME280;33854;57.708;12.008;2023-04-26T00:39:24;99690.81;;;4.13;100.00
48077;BME280;33854;57.708;12.008;2023-04-26T00:41:49;99692.91;;;4.02;100.00
48077;BME280;33854;57.708;12.008;2023-04-26T00:44:15;99678.94;;;3.84;100.00
48077;BME280;33854;57.708;12.008;2023-04-26T00:46:40;99689.25;;;3.84;100.00
48077;BME280;33854;57.708;12.008;2023-04-26T00:49:06;99688.41;;;3.84;100.00
48077;BME280;33854;57.708;12.008;2023-04-26T00:51:31;99682.78;;;3.73;100.00
48077;BME280;33854;57.708;12.008;2023-04-26T00:53:58;99699.84;;;3.77;100.00
48077;BME280;33854;57.708;12.008;2023-04-26T00:56:24;99686.16;;;3.75;100.00
48077;BME280;33854;57.708;12.008;2023-04-26T00:58:49;99693.91;;;3.75;100.00
48077;BME280;33854;57.708;12.008;2023-04-26T01:01:15;99692.31;;;3.71;100.00
48077;BME280;33854;57.708;12.008;2023-04-26T01:03:40;99700.00;;;3.72;100.00
48077;BME280;33854;57.708;12.008;2023-04-26T01:06:06;99701.75;;;3.72;100.00
48077;BME280;33854;57.708;12.008;2023-04-26T01:08:32;99700.88;;;3.71;100.00
48077;BME280;33854;57.708;12.008;2023-04-26T01:10:58;99699.16;;;3.72;100.00
48077;BME280;33854;57.708;12.008;2023-04-26T01:13:23;99700.13;;;3.69;100.00
48077;BME280;33854;57.708;12.008;2023-04-26T01:15:50;99699.19;;;3.70;100.00
48077;BME280;33854;57.708;12.008;2023-04-26T01:18:16;99705.66;;;3.82;100.00
48077;BME280;33854;57.708;12.008;2023-04-26T01:20:41;99714.00;;;3.90;100.00
48077;BME280;33854;57.708;12.008;2023-04-26T01:23:10;99721.31;;;4.02;100.00
48077;BME280;33854;57.708;12.008;2023-04-26T01:25:35;99728.72;;;4.11;100.00
48077;BME280;33854;57.708;12.008;2023-04-26T01:28:01;99734.56;;;4.16;100.00
48077;BME280;33854;57.708;12.008;2023-04-26T01:30:27;99747.16;;;4.25;100.00
48077;BME280;33854;57.708;12.008;2023-04-26T01:32:52;99743.72;;;4.25;100.00
48077;BME280;33854;57.708;12.008;2023-04-26T01:35:18;99761.47;;;4.34;100.00
48077;BME280;33854;57.708;12.008;2023-04-26T01:37:43;99742.94;;;4.23;100.00
48077;BME280;33854;57.708;12.008;2023-04-26T01:40:09;99776.03;;;4.36;100.00
48077;BME280;33854;57.708;12.008;2023-04-26T01:42:34;99782.94;;;4.36;100.00
48077;BME280;33854;57.708;12.008;2023-04-26T01:45:00;99782.88;;;4.37;100.00
48077;BME280;33854;57.708;12.008;2023-04-26T01:47:25;99783.66;;;4.39;100.00
48077;BME280;33854;57.708;12.008;2023-04-26T01:49:51;99788.69;;;4.44;100.00
48077;BME280;33854;57.708;12.008;2023-04-26T01:52:17;99786.25;;;4.39;100.00
48077;BME280;33854;57.708;12.008;2023-04-26T01:54:42;99791.41;;;4.39;100.00
48077;BME280;33854;57.708;12.008;2023-04-26T01:57:08;99791.59;;;4.35;100.00
48077;BME280;33854;57.708;12.008;2023-04-26T01:59:33;99800.97;;;4.37;100.00
48077;BME280;33854;57.708;12.008;2023-04-26T02:01:59;99800.06;;;4.38;100.00
48077;BME280;33854;57.708;12.008;2023-04-26T02:04:25;99804.31;;;4.39;100.00
48077;BME280;33854;57.708;12.008;2023-04-26T02:06:50;99801.63;;;4.42;100.00
48077;BME280;33854;57.708;12.008;2023-04-26T02:09:16;99804.75;;;4.52;100.00
48077;BME280;33854;57.708;12.008;2023-04-26T02:11:42;99807.50;;;4.47;100.00
48077;BME280;33854;57.708;12.008;2023-04-26T02:14:08;99805.47;;;4.55;100.00
48077;BME280;33854;57.708;12.008;2023-04-26T02:16:33;99795.41;;;4.48;100.00
48077;BME280;33854;57.708;12.008;2023-04-26T02:18:59;99806.47;;;4.51;100.00
48077;BME280;33854;57.708;12.008;2023-04-26T02:21:24;99799.88;;;4.44;100.00
48077;BME280;33854;57.708;12.008;2023-04-26T02:23:51;99795.91;;;4.34;100.00
48077;BME280;33854;57.708;12.008;2023-04-26T02:26:16;99764.63;;;4.19;100.00
48077;BME280;33854;57.708;12.008;2023-04-26T02:28:42;99794.34;;;4.30;100.00
48077;BME280;33854;57.708;12.008;2023-04-26T02:31:08;99782.53;;;4.23;100.00
48077;BME280;33854;57.708;12.008;2023-04-26T02:33:33;99793.44;;;4.31;100.00
48077;BME280;33854;57.708;12.008;2023-04-26T02:36:02;99779.94;;;4.23;100.00
48077;BME280;33854;57.708;12.008;2023-04-26T02:38:28;99791.69;;;4.32;100.00
48077;BME280;33854;57.708;12.008;2023-04-26T02:41:01;99795.91;;;4.34;100.00
48077;BME280;33854;57.708;12.008;2023-04-26T02:43:26;99777.94;;;4.31;100.00
48077;BME280;33854;57.708;12.008;2023-04-26T02:45:52;99788.03;;;4.37;100.00
48077;BME280;33854;57.708;12.008;2023-04-26T02:48:17;99787.31;;;4.34;100.00
48077;BME280;33854;57.708;12.008;2023-04-26T02:50:43;99777.16;;;4.29;100.00
48077;BME280;33854;57.708;12.008;2023-04-26T02:53:08;99787.63;;;4.25;100.00
48077;BME280;33854;57.708;12.008;2023-04-26T02:55:36;99786.16;;;4.18;100.00
48077;BME280;33854;57.708;12.008;2023-04-26T02:58:02;99768.28;;;4.13;100.00
48077;BME280;33854;57.708;12.008;2023-04-26T03:00:27;99770.72;;;4.16;100.00
48077;BME280;33854;57.708;12.008;2023-04-26T03:02:52;99775.66;;;4.22;100.00
48077;BME280;33854;57.708;12.008;2023-04-26T03:05:18;99775.78;;;4.19;100.00
48077;BME280;33854;57.708;12.008;2023-04-26T03:07:45;99765.63;;;4.15;100.00
48077;BME280;33854;57.708;12.008;2023-04-26T03:10:10;99769.09;;;4.14;100.00
48077;BME280;33854;57.708;12.008;2023-04-26T03:12:36;99760.72;;;4.07;100.00
48077;BME280;33854;57.708;12.008;2023-04-26T03:15:02;99766.72;;;4.08;100.00
48077;BME280;33854;57.708;12.008;2023-04-26T03:17:28;99761.50;;;4.09;100.00
48077;BME280;33854;57.708;12.008;2023-04-26T03:19:53;99759.72;;;4.11;100.00
48077;BME280;33854;57.708;12.008;2023-04-26T03:22:19;99749.38;;;4.11;100.00
48077;BME280;33854;57.708;12.008;2023-04-26T03:24:45;99737.38;;;4.10;100.00
48077;BME280;33854;57.708;12.008;2023-04-26T03:27:12;99737.50;;;4.07;100.00
48077;BME280;33854;57.708;12.008;2023-04-26T03:29:37;99731.41;;;4.08;100.00
48077;BME280;33854;57.708;12.008;2023-04-26T03:32:03;99722.00;;;4.07;100.00
48077;BME280;33854;57.708;12.008;2023-04-26T03:34:30;99708.28;;;4.05;100.00
48077;BME280;33854;57.708;12.008;2023-04-26T03:36:55;99700.81;;;3.97;100.00
48077;BME280;33854;57.708;12.008;2023-04-26T03:39:21;99703.69;;;3.90;100.00
48077;BME280;33854;57.708;12.008;2023-04-26T03:41:46;99697.78;;;3.86;100.00
48077;BME280;33854;57.708;12.008;2023-04-26T03:44:11;99667.31;;;3.73;100.00
48077;BME280;33854;57.708;12.008;2023-04-26T03:46:38;99674.97;;;3.74;100.00
48077;BME280;33854;57.708;12.008;2023-04-26T03:49:03;99674.19;;;3.72;100.00
48077;BME280;33854;57.708;12.008;2023-04-26T03:51:29;99668.41;;;3.66;100.00
48077;BME280;33854;57.708;12.008;2023-04-26T03:53:55;99672.81;;;3.62;100.00
48077;BME280;33854;57.708;12.008;2023-04-26T03:56:21;99686.56;;;3.63;100.00
48077;BME280;33854;57.708;12.008;2023-04-26T03:58:46;99690.16;;;3.59;100.00
48077;BME280;33854;57.708;12.008;2023-04-26T04:01:11;99699.47;;;3.63;100.00
48077;BME280;33854;57.708;12.008;2023-04-26T04:03:37;99711.38;;;3.67;100.00
48077;BME280;33854;57.708;12.008;2023-04-26T04:06:03;99701.94;;;3.66;100.00
48077;BME280;33854;57.708;12.008;2023-04-26T04:08:29;99713.03;;;3.68;100.00
48077;BME280;33854;57.708;12.008;2023-04-26T04:10:54;99688.41;;;3.59;100.00
48077;BME280;33854;57.708;12.008;2023-04-26T04:13:21;99712.94;;;3.71;100.00
48077;BME280;33854;57.708;12.008;2023-04-26T04:15:46;99714.56;;;3.73;100.00
48077;BME280;33854;57.708;12.008;2023-04-26T04:18:12;99706.78;;;3.75;100.00
48077;BME280;33854;57.708;12.008;2023-04-26T04:20:37;99709.38;;;3.75;100.00
48077;BME280;33854;57.708;12.008;2023-04-26T04:23:03;99716.09;;;3.79;100.00
48077;BME280;33854;57.708;12.008;2023-04-26T04:25:30;99721.06;;;3.85;100.00
48077;BME280;33854;57.708;12.008;2023-04-26T04:27:55;99723.41;;;3.91;100.00
48077;BME280;33854;57.708;12.008;2023-04-26T04:30:22;99722.31;;;3.98;100.00
48077;BME280;33854;57.708;12.008;2023-04-26T04:32:48;99724.84;;;3.99;100.00
48077;BME280;33854;57.708;12.008;2023-04-26T04:35:14;99733.28;;;4.05;100.00
48077;BME280;33854;57.708;12.008;2023-04-26T04:37:39;99735.69;;;4.09;100.00
48077;BME280;33854;57.708;12.008;2023-04-26T04:40:05;99740.00;;;4.09;100.00
48077;BME280;33854;57.708;12.008;2023-04-26T04:42:34;99759.72;;;4.11;100.00
48077;BME280;33854;57.708;12.008;2023-04-26T04:45:00;99753.66;;;4.12;100.00
48077;BME280;33854;57.708;12.008;2023-04-26T04:47:25;99768.97;;;4.17;100.00
48077;BME280;33854;57.708;12.008;2023-04-26T04:49:51;99773.19;;;4.19;100.00
48077;BME280;33854;57.708;12.008;2023-04-26T04:52:17;99773.03;;;4.24;100.00
48077;BME280;33854;57.708;12.008;2023-04-26T04:54:45;99779.00;;;4.26;100.00
48077;BME280;33854;57.708;12.008;2023-04-26T04:57:11;99776.41;;;4.26;100.00
48077;BME280;33854;57.708;12.008;2023-04-26T04:59:38;99762.97;;;4.16;100.00
48077;BME280;33854;57.708;12.008;2023-04-26T05:02:03;99780.63;;;4.28;100.00
48077;BME280;33854;57.708;12.008;2023-04-26T05:04:29;99782.22;;;4.32;100.00
48077;BME280;33854;57.708;12.008;2023-04-26T05:06:58;99778.47;;;4.41;100.00
48077;BME280;33854;57.708;12.008;2023-04-26T05:09:24;99786.03;;;4.45;100.00
48077;BME280;33854;57.708;12.008;2023-04-26T05:11:49;99788.25;;;4.56;100.00
48077;BME280;33854;57.708;12.008;2023-04-26T05:14:14;99770.59;;;4.67;100.00
48077;BME280;33854;57.708;12.008;2023-04-26T05:16:40;99785.69;;;4.78;100.00
48077;BME280;33854;57.708;12.008;2023-04-26T05:19:05;99793.00;;;4.90;100.00
48077;BME280;33854;57.708;12.008;2023-04-26T05:21:31;99794.31;;;5.00;100.00
48077;BME280;33854;57.708;12.008;2023-04-26T05:23:57;99784.72;;;5.03;100.00
48077;BME280;33854;57.708;12.008;2023-04-26T05:26:22;99798.88;;;5.16;100.00
48077;BME280;33854;57.708;12.008;2023-04-26T05:28:48;99802.28;;;5.39;100.00
48077;BME280;33854;57.708;12.008;2023-04-26T05:31:13;99814.31;;;5.61;100.00
48077;BME280;33854;57.708;12.008;2023-04-26T05:33:39;99830.13;;;5.54;100.00
48077;BME280;33854;57.708;12.008;2023-04-26T05:36:04;99866.00;;;5.41;100.00
48077;BME280;33854;57.708;12.008;2023-04-26T05:38:31;99883.50;;;5.13;100.00
48077;BME280;33854;57.708;12.008;2023-04-26T05:40:56;99873.44;;;4.57;100.00
48077;BME280;33854;57.708;12.008;2023-04-26T05:43:22;99855.41;;;4.31;100.00
48077;BME280;33854;57.708;12.008;2023-04-26T05:45:54;99835.06;;;4.22;100.00
48077;BME280;33854;57.708;12.008;2023-04-26T05:48:20;99823.91;;;4.22;100.00
48077;BME280;33854;57.708;12.008;2023-04-26T05:50:47;99826.00;;;4.35;100.00
48077;BME280;33854;57.708;12.008;2023-04-26T05:53:13;99811.78;;;4.24;100.00
48077;BME280;33854;57.708;12.008;2023-04-26T05:55:40;99822.00;;;4.27;100.00
48077;BME280;33854;57.708;12.008;2023-04-26T05:58:06;99825.47;;;4.26;100.00
48077;BME280;33854;57.708;12.008;2023-04-26T06:00:32;99816.84;;;4.27;100.00
48077;BME280;33854;57.708;12.008;2023-04-26T06:02:57;99820.94;;;4.32;100.00
48077;BME280;33854;57.708;12.008;2023-04-26T06:05:23;99821.59;;;4.39;100.00
48077;BME280;33854;57.708;12.008;2023-04-26T06:07:49;99832.75;;;4.39;100.00
48077;BME280;33854;57.708;12.008;2023-04-26T06:10:14;99847.25;;;4.43;100.00
48077;BME280;33854;57.708;12.008;2023-04-26T06:12:40;99840.94;;;4.27;100.00
48077;BME280;33854;57.708;12.008;2023-04-26T06:15:06;99844.44;;;4.25;100.00
48077;BME280;33854;57.708;12.008;2023-04-26T06:17:32;99852.81;;;4.33;100.00
48077;BME280;33854;57.708;12.008;2023-04-26T06:19:57;99859.50;;;4.38;100.00
48077;BME280;33854;57.708;12.008;2023-04-26T06:22:23;99850.72;;;4.42;100.00
48077;BME280;33854;57.708;12.008;2023-04-26T06:24:48;99854.03;;;4.46;100.00
48077;BME280;33854;57.708;12.008;2023-04-26T06:27:14;99859.97;;;4.49;100.00
48077;BME280;33854;57.708;12.008;2023-04-26T06:29:39;99860.88;;;4.72;100.00
48077;BME280;33854;57.708;12.008;2023-04-26T06:32:05;99865.84;;;5.01;100.00
48077;BME280;33854;57.708;12.008;2023-04-26T06:34:31;99859.56;;;5.30;100.00
48077;BME280;33854;57.708;12.008;2023-04-26T06:36:56;99874.09;;;5.10;100.00
48077;BME280;33854;57.708;12.008;2023-04-26T06:39:22;99864.47;;;5.14;100.00
48077;BME280;33854;57.708;12.008;2023-04-26T06:41:47;99868.63;;;5.18;100.00
48077;BME280;33854;57.708;12.008;2023-04-26T06:44:13;99872.06;;;5.18;100.00
48077;BME280;33854;57.708;12.008;2023-04-26T06:46:38;99868.41;;;5.24;100.00
48077;BME280;33854;57.708;12.008;2023-04-26T06:49:03;99875.72;;;5.36;100.00
48077;BME280;33854;57.708;12.008;2023-04-26T06:51:29;99871.22;;;5.40;100.00
48077;BME280;33854;57.708;12.008;2023-04-26T06:53:55;99856.66;;;5.37;100.00
48077;BME280;33854;57.708;12.008;2023-04-26T06:56:23;99886.00;;;5.59;100.00
48077;BME280;33854;57.708;12.008;2023-04-26T06:59:02;99888.09;;;5.71;100.00
48077;BME280;33854;57.708;12.008;2023-04-26T07:01:29;99888.22;;;5.68;100.00
48077;BME280;33854;57.708;12.008;2023-04-26T07:04:04;99897.38;;;5.55;100.00
48077;BME280;33854;57.708;12.008;2023-04-26T07:06:35;99901.03;;;5.71;100.00
48077;BME280;33854;57.708;12.008;2023-04-26T07:09:01;99905.09;;;5.79;100.00
48077;BME280;33854;57.708;12.008;2023-04-26T07:11:30;99907.44;;;5.85;100.00
48077;BME280;33854;57.708;12.008;2023-04-26T07:13:56;99918.47;;;5.90;100.00
48077;BME280;33854;57.708;12.008;2023-04-26T07:16:21;99891.75;;;5.89;100.00
48077;BME280;33854;57.708;12.008;2023-04-26T07:18:47;99919.31;;;6.12;100.00
48077;BME280;33854;57.708;12.008;2023-04-26T07:21:13;99903.06;;;5.87;100.00
48077;BME280;33854;57.708;12.008;2023-04-26T07:23:39;99916.84;;;6.09;100.00
48077;BME280;33854;57.708;12.008;2023-04-26T07:26:05;99947.38;;;6.22;100.00
48077;BME280;33854;57.708;12.008;2023-04-26T07:28:30;99915.94;;;6.10;100.00
48077;BME280;33854;57.708;12.008;2023-04-26T07:30:57;99926.47;;;6.47;100.00
48077;BME280;33854;57.708;12.008;2023-04-26T07:33:23;99928.84;;;6.52;100.00
48077;BME280;33854;57.708;12.008;2023-04-26T07:35:56;99936.50;;;6.35;100.00
48077;BME280;33854;57.708;12.008;2023-04-26T07:38:22;99927.81;;;6.36;100.00
48077;BME280;33854;57.708;12.008;2023-04-26T07:40:48;99935.31;;;6.21;100.00
48077;BME280;33854;57.708;12.008;2023-04-26T07:43:14;99934.16;;;6.08;100.00
48077;BME280;33854;57.708;12.008;2023-04-26T07:45:41;99938.22;;;5.92;100.00
48077;BME280;33854;57.708;12.008;2023-04-26T07:48:06;99929.28;;;5.78;100.00
48077;BME280;33854;57.708;12.008;2023-04-26T07:50:32;99940.22;;;6.07;100.00
48077;BME280;33854;57.708;12.008;2023-04-26T07:52:57;99936.53;;;6.13;100.00
48077;BME280;33854;57.708;12.008;2023-04-26T07:55:23;99966.19;;;6.48;100.00
48077;BME280;33854;57.708;12.008;2023-04-26T07:57:48;99955.25;;;6.61;100.00
48077;BME280;33854;57.708;12.008;2023-04-26T08:00:14;99944.78;;;6.83;100.00
48077;BME280;33854;57.708;12.008;2023-04-26T08:02:41;99953.81;;;6.74;100.00
48077;BME280;33854;57.708;12.008;2023-04-26T08:05:07;99951.50;;;6.88;100.00
48077;BME280;33854;57.708;12.008;2023-04-26T08:07:33;99952.78;;;6.78;100.00
48077;BME280;33854;57.708;12.008;2023-04-26T08:09:58;99931.41;;;6.53;100.00
48077;BME280;33854;57.708;12.008;2023-04-26T08:12:24;99964.19;;;6.54;100.00
48077;BME280;33854;57.708;12.008;2023-04-26T08:14:49;99971.38;;;6.48;100.00
48077;BME280;33854;57.708;12.008;2023-04-26T08:17:15;99969.81;;;6.44;100.00
48077;BME280;33854;57.708;12.008;2023-04-26T08:19:40;99980.84;;;6.69;100.00
48077;BME280;33854;57.708;12.008;2023-04-26T08:22:06;99985.91;;;6.72;100.00
48077;BME280;33854;57.708;12.008;2023-04-26T08:24:31;100004.09;;;6.50;100.00
48077;BME280;33854;57.708;12.008;2023-04-26T08:26:57;99971.69;;;6.40;100.00
48077;BME280;33854;57.708;12.008;2023-04-26T08:29:23;99981.03;;;6.64;100.00
48077;BME280;33854;57.708;12.008;2023-04-26T08:31:49;99981.81;;;6.86;100.00
48077;BME280;33854;57.708;12.008;2023-04-26T08:34:14;99968.13;;;7.03;100.00
48077;BME280;33854;57.708;12.008;2023-04-26T08:36:40;99989.19;;;7.16;100.00
48077;BME280;33854;57.708;12.008;2023-04-26T08:39:06;99986.97;;;7.27;100.00
48077;BME280;33854;57.708;12.008;2023-04-26T08:41:36;99987.94;;;7.24;100.00
48077;BME280;33854;57.708;12.008;2023-04-26T08:44:05;100010.31;;;6.88;100.00
48077;BME280;33854;57.708;12.008;2023-04-26T08:46:36;99997.13;;;6.72;100.00
48077;BME280;33854;57.708;12.008;2023-04-26T08:49:39;100014.09;;;6.59;100.00
48077;BME280;33854;57.708;12.008;2023-04-26T08:52:08;100000.88;;;6.45;100.00
48077;BME280;33854;57.708;12.008;2023-04-26T08:54:36;100008.00;;;6.60;100.00
48077;BME280;33854;57.708;12.008;2023-04-26T08:57:02;100000.31;;;6.37;100.00
48077;BME280;33854;57.708;12.008;2023-04-26T08:59:29;100030.31;;;6.64;100.00
48077;BME280;33854;57.708;12.008;2023-04-26T09:01:55;100009.19;;;7.14;100.00
48077;BME280;33854;57.708;12.008;2023-04-26T09:04:21;100010.81;;;7.35;100.00
48077;BME280;33854;57.708;12.008;2023-04-26T09:06:47;100036.75;;;7.55;100.00
48077;BME280;33854;57.708;12.008;2023-04-26T09:09:17;100003.91;;;7.54;100.00
48077;BME280;33854;57.708;12.008;2023-04-26T09:11:57;100033.75;;;7.64;100.00
48077;BME280;33854;57.708;12.008;2023-04-26T09:14:24;100010.09;;;7.13;100.00
48077;BME280;33854;57.708;12.008;2023-04-26T09:16:50;100020.88;;;7.42;100.00
48077;BME280;33854;57.708;12.008;2023-04-26T09:19:16;100030.28;;;7.45;100.00
48077;BME280;33854;57.708;12.008;2023-04-26T09:21:43;100019.81;;;7.28;100.00
48077;BME280;33854;57.708;12.008;2023-04-26T09:24:09;100017.88;;;7.52;100.00
48077;BME280;33854;57.708;12.008;2023-04-26T09:26:35;100012.00;;;7.85;100.00
48077;BME280;33854;57.708;12.008;2023-04-26T09:29:17;100012.78;;;7.69;100.00
48077;BME280;33854;57.708;12.008;2023-04-26T09:31:45;100018.44;;;7.39;100.00
48077;BME280;33854;57.708;12.008;2023-04-26T09:34:12;100050.22;;;6.84;100.00
48077;BME280;33854;57.708;12.008;2023-04-26T09:36:56;100033.66;;;6.66;100.00
48077;BME280;33854;57.708;12.008;2023-04-26T09:39:35;100047.97;;;6.97;100.00
48077;BME280;33854;57.708;12.008;2023-04-26T09:42:05;100032.53;;;7.14;100.00
48077;BME280;33854;57.708;12.008;2023-04-26T09:44:31;100041.56;;;7.44;100.00
48077;BME280;33854;57.708;12.008;2023-04-26T09:49:25;100039.41;;;7.15;100.00
48077;BME280;33854;57.708;12.008;2023-04-26T09:52:04;100046.25;;;6.75;100.00
48077;BME280;33854;57.708;12.008;2023-04-26T09:54:50;100044.88;;;7.09;100.00
48077;BME280;33854;57.708;12.008;2023-04-26T09:57:17;100060.63;;;7.24;100.00
48077;BME280;33854;57.708;12.008;2023-04-26T09:59:48;100045.94;;;7.23;100.00
48077;BME280;33854;57.708;12.008;2023-04-26T10:02:19;100058.28;;;7.18;100.00
48077;BME280;33854;57.708;12.008;2023-04-26T10:04:51;100068.03;;;7.13;100.00
48077;BME280;33854;57.708;12.008;2023-04-26T10:07:19;100081.44;;;7.03;100.00
48077;BME280;33854;57.708;12.008;2023-04-26T10:09:45;100028.00;;;6.99;100.00
48077;BME280;33854;57.708;12.008;2023-04-26T10:12:13;100064.38;;;6.97;100.00
48077;BME280;33854;57.708;12.008;2023-04-26T10:14:38;100069.16;;;6.86;100.00
48077;BME280;33854;57.708;12.008;2023-04-26T10:17:05;100068.41;;;7.04;100.00
48077;BME280;33854;57.708;12.008;2023-04-26T10:19:33;100059.34;;;6.94;100.00
48077;BME280;33854;57.708;12.008;2023-04-26T10:22:03;100078.47;;;6.92;100.00
48077;BME280;33854;57.708;12.008;2023-04-26T10:24:29;100067.84;;;6.76;100.00
48077;BME280;33854;57.708;12.008;2023-04-26T10:26:55;100070.50;;;6.74;100.00
48077;BME280;33854;57.708;12.008;2023-04-26T10:32:22;100070.59;;;7.54;100.00
48077;BME280;33854;57.708;12.008;2023-04-26T10:35:10;100064.78;;;7.28;100.00
48077;BME280;33854;57.708;12.008;2023-04-26T10:42:50;100071.97;;;7.42;100.00
48077;BME280;33854;57.708;12.008;2023-04-26T10:45:26;100080.22;;;7.31;100.00
48077;BME280;33854;57.708;12.008;2023-04-26T10:53:24;100083.56;;;7.54;100.00
48077;BME280;33854;57.708;12.008;2023-04-26T10:55:50;100074.28;;;7.48;100.00
48077;BME280;33854;57.708;12.008;2023-04-26T10:58:32;100082.59;;;7.36;100.00
48077;BME280;33854;57.708;12.008;2023-04-26T11:03:33;100106.97;;;7.52;100.00
48077;BME280;33854;57.708;12.008;2023-04-26T11:05:59;100097.84;;;7.03;100.00
48077;BME280;33854;57.708;12.008;2023-04-26T11:08:29;100109.47;;;6.73;100.00
48077;BME280;33854;57.708;12.008;2023-04-26T11:11:04;100099.97;;;6.94;100.00
48077;BME280;33854;57.708;12.008;2023-04-26T11:13:35;100097.66;;;7.08;100.00
48077;BME280;33854;57.708;12.008;2023-04-26T11:16:02;100109.59;;;7.52;100.00
48077;BME280;33854;57.708;12.008;2023-04-26T11:18:30;100095.25;;;7.43;100.00
48077;BME280;33854;57.708;12.008;2023-04-26T11:20:55;100099.97;;;7.74;100.00
48077;BME280;33854;57.708;12.008;2023-04-26T11:23:22;100123.34;;;7.74;100.00
48077;BME280;33854;57.708;12.008;2023-04-26T11:25:48;100108.03;;;7.68;100.00
48077;BME280;33854;57.708;12.008;2023-04-26T11:28:13;100146.34;;;8.02;100.00
48077;BME280;33854;57.708;12.008;2023-04-26T11:30:39;100120.44;;;8.00;100.00
48077;BME280;33854;57.708;12.008;2023-04-26T11:33:04;100116.44;;;7.73;100.00
48077;BME280;33854;57.708;12.008;2023-04-26T11:35:37;100106.81;;;7.57;100.00
48077;BME280;33854;57.708;12.008;2023-04-26T11:38:04;100116.44;;;7.73;100.00
48077;BME280;33854;57.708;12.008;2023-04-26T11:40:31;100119.91;;;7.13;100.00
48077;BME280;33854;57.708;12.008;2023-04-26T11:43:02;100129.97;;;7.21;100.00
48077;BME280;33854;57.708;12.008;2023-04-26T11:45:31;100123.94;;;7.40;100.00
48077;BME280;33854;57.708;12.008;2023-04-26T11:47:58;100127.13;;;7.27;100.00
48077;BME280;33854;57.708;12.008;2023-04-26T11:50:24;100122.75;;;7.07;100.00
48077;BME280;33854;57.708;12.008;2023-04-26T11:52:52;100122.38;;;7.16;100.00
48077;BME280;33854;57.708;12.008;2023-04-26T11:55:22;100133.47;;;7.00;100.00
48077;BME280;33854;57.708;12.008;2023-04-26T11:57:49;100136.34;;;6.92;100.00
48077;BME280;33854;57.708;12.008;2023-04-26T12:00:15;100115.19;;;7.03;100.00
48077;BME280;33854;57.708;12.008;2023-04-26T12:02:44;100126.56;;;6.99;100.00
48077;BME280;33854;57.708;12.008;2023-04-26T12:05:20;100134.47;;;7.17;100.00
48077;BME280;33854;57.708;12.008;2023-04-26T12:07:52;100121.00;;;7.08;100.00
48077;BME280;33854;57.708;12.008;2023-04-26T12:10:19;100133.41;;;7.21;100.00
48077;BME280;33854;57.708;12.008;2023-04-26T12:12:49;100154.91;;;7.45;100.00
48077;BME280;33854;57.708;12.008;2023-04-26T12:15:16;100140.75;;;7.52;100.00
48077;BME280;33854;57.708;12.008;2023-04-26T12:18:14;100159.97;;;7.68;100.00
48077;BME280;33854;57.708;12.008;2023-04-26T12:20:40;100155.34;;;8.14;100.00
48077;BME280;33854;57.708;12.008;2023-04-26T12:23:07;100154.84;;;8.06;100.00
48077;BME280;33854;57.708;12.008;2023-04-26T12:25:35;100146.72;;;7.54;100.00
48077;BME280;33854;57.708;12.008;2023-04-26T12:28:11;100163.84;;;7.58;100.00
48077;BME280;33854;57.708;12.008;2023-04-26T12:30:39;100158.78;;;7.55;100.00
48077;BME280;33854;57.708;12.008;2023-04-26T12:33:05;100137.34;;;8.65;100.00
48077;BME280;33854;57.708;12.008;2023-04-26T12:35:31;100152.59;;;8.17;100.00
48077;BME280;33854;57.708;12.008;2023-04-26T12:37:57;100158.97;;;7.71;100.00
48077;BME280;33854;57.708;12.008;2023-04-26T12:40:25;100163.53;;;7.86;100.00
48077;BME280;33854;57.708;12.008;2023-04-26T12:42:51;100177.06;;;7.92;100.00
48077;BME280;33854;57.708;12.008;2023-04-26T12:45:17;100161.97;;;7.41;100.00
48077;BME280;33854;57.708;12.008;2023-04-26T12:47:44;100173.97;;;7.44;100.00
48077;BME280;33854;57.708;12.008;2023-04-26T12:50:10;100164.06;;;8.50;96.70
48077;BME280;33854;57.708;12.008;2023-04-26T12:52:40;100163.84;;;9.78;85.77
48077;BME280;33854;57.708;12.008;2023-04-26T12:55:08;100172.31;;;10.31;90.05
48077;BME280;33854;57.708;12.008;2023-04-26T12:57:36;100146.81;;;10.83;94.54
48077;BME280;33854;57.708;12.008;2023-04-26T13:00:03;100193.03;;;10.50;98.16
48077;BME280;33854;57.708;12.008;2023-04-26T13:02:28;100188.09;;;9.95;97.98
48077;BME280;33854;57.708;12.008;2023-04-26T13:04:54;100166.38;;;9.28;95.92